createdAt,value
2022-12-08T00:01:38.705Z,1.57
2022-12-08T00:04:13.270Z,1.52
2022-12-08T00:07:01.336Z,1.50
2022-12-08T00:09:38.689Z,1.46
2022-12-08T00:12:11.663Z,1.46
2022-12-08T00:14:44.041Z,1.44
2022-12-08T00:17:16.891Z,1.44
2022-12-08T00:19:45.887Z,1.42
2022-12-08T00:22:16.428Z,1.39
2022-12-08T00:24:46.644Z,1.39
2022-12-08T00:27:21.154Z,1.40
2022-12-08T00:29:50.806Z,1.42
2022-12-08T00:32:20.963Z,1.40
2022-12-08T00:34:50.676Z,1.38
2022-12-08T00:37:19.303Z,1.33
2022-12-08T00:39:54.658Z,1.27
2022-12-08T00:42:24.322Z,1.26
2022-12-08T00:44:54.908Z,1.23
2022-12-08T00:47:25.192Z,1.21
2022-12-08T00:49:54.218Z,1.17
2022-12-08T00:52:23.884Z,1.15
2022-12-08T00:54:56.567Z,1.14
2022-12-08T00:57:26.089Z,1.13
2022-12-08T00:59:54.957Z,1.12
2022-12-08T01:02:33.578Z,1.09
2022-12-08T01:05:02.209Z,1.08
2022-12-08T01:07:33.418Z,1.07
2022-12-08T01:10:04.479Z,1.05
2022-12-08T01:12:33.506Z,1.01
2022-12-08T01:15:09.235Z,0.98
2022-12-08T01:17:40.359Z,0.95
2022-12-08T01:20:11.180Z,0.93
2022-12-08T01:22:39.794Z,0.92
2022-12-08T01:25:08.887Z,0.93
2022-12-08T01:27:37.667Z,0.92
2022-12-08T01:30:07.490Z,0.90
2022-12-08T01:32:41.478Z,0.87
2022-12-08T01:35:14.438Z,0.84
2022-12-08T01:37:43.088Z,0.82
2022-12-08T01:40:12.347Z,0.80
2022-12-08T01:42:41.074Z,0.80
2022-12-08T01:45:16.835Z,0.78
2022-12-08T01:47:57.810Z,0.76
2022-12-08T01:50:29.884Z,0.73
2022-12-08T01:53:03.179Z,0.74
2022-12-08T01:55:35.050Z,0.71
2022-12-08T01:58:13.883Z,0.71
2022-12-08T02:00:51.553Z,0.71
2022-12-08T02:03:28.810Z,0.68
2022-12-08T02:05:57.439Z,0.69
2022-12-08T02:08:27.640Z,0.69
2022-12-08T02:10:57.344Z,0.68
2022-12-08T02:13:27.249Z,0.68
2022-12-08T02:16:06.983Z,0.68
2022-12-08T02:19:28.928Z,0.66
2022-12-08T02:21:58.787Z,0.66
2022-12-08T02:24:38.146Z,0.66
2022-12-08T02:27:35.328Z,0.65
2022-12-08T02:30:13.623Z,0.64
2022-12-08T02:33:22.698Z,0.61
2022-12-08T02:35:59.926Z,0.61
2022-12-08T02:38:41.965Z,0.61
2022-12-08T02:41:25.617Z,0.58
2022-12-08T02:44:02.066Z,0.51
2022-12-08T02:46:37.352Z,0.44
2022-12-08T02:49:08.659Z,0.39
2022-12-08T02:51:41.003Z,0.36
2022-12-08T02:54:09.979Z,0.33
2022-12-08T02:56:59.669Z,0.28
2022-12-08T02:59:38.309Z,0.22
2022-12-08T03:02:28.422Z,0.17
2022-12-08T03:05:08.178Z,0.18
2022-12-08T03:07:44.451Z,0.11
2022-12-08T03:10:17.896Z,0.07
2022-12-08T03:12:52.057Z,0.09
2022-12-08T03:15:23.267Z,0.07
2022-12-08T03:17:58.293Z,0.05
2022-12-08T03:20:29.617Z,0.06
2022-12-08T03:23:03.891Z,0.01
2022-12-08T03:25:42.827Z,0.00
2022-12-08T03:28:14.757Z,0.01
2022-12-08T03:30:47.852Z,0.02
2022-12-08T03:33:25.055Z,0.08
2022-12-08T03:35:55.793Z,0.11
2022-12-08T03:38:26.008Z,0.11
2022-12-08T03:41:14.439Z,0.13
2022-12-08T03:43:43.089Z,0.06
2022-12-08T03:46:14.944Z,0.03
2022-12-08T03:48:43.541Z,0.02
2022-12-08T03:51:12.644Z,0.01
2022-12-08T03:53:43.335Z,-0.01
2022-12-08T03:56:26.870Z,0.03
2022-12-08T03:59:02.761Z,-0.01
2022-12-08T04:01:32.650Z,0.00
2022-12-08T04:04:01.237Z,0.05
2022-12-08T04:06:32.112Z,0.06
2022-12-08T04:09:02.208Z,0.05
2022-12-08T04:11:30.890Z,0.06
2022-12-08T04:13:59.472Z,0.07
2022-12-08T04:16:28.793Z,0.08
2022-12-08T04:18:57.521Z,0.09
2022-12-08T04:21:26.376Z,0.09
2022-12-08T04:24:00.774Z,0.14
2022-12-08T04:26:33.626Z,0.16
2022-12-08T04:29:03.138Z,0.12
2022-12-08T04:31:31.982Z,0.12
2022-12-08T04:34:00.812Z,0.13
2022-12-08T04:36:29.418Z,0.15
2022-12-08T04:38:59.544Z,0.15
2022-12-08T04:41:28.106Z,0.17
2022-12-08T04:43:58.323Z,0.19
2022-12-08T04:46:26.796Z,0.22
2022-12-08T04:48:55.225Z,0.22
2022-12-08T04:51:28.016Z,0.22
2022-12-08T04:53:57.487Z,0.26
2022-12-08T04:56:26.087Z,0.29
2022-12-08T04:58:55.686Z,0.31
2022-12-08T05:01:26.878Z,0.30
2022-12-08T05:04:05.255Z,0.31
2022-12-08T05:06:36.967Z,0.27
2022-12-08T05:09:14.715Z,0.22
2022-12-08T05:11:48.566Z,0.19
2022-12-08T05:14:21.599Z,0.15
2022-12-08T05:16:53.670Z,0.15
2022-12-08T05:19:22.346Z,0.12
2022-12-08T05:21:50.957Z,0.09
2022-12-08T05:24:22.307Z,0.05
2022-12-08T05:26:58.555Z,0.04
2022-12-08T05:29:28.009Z,0.05
2022-12-08T05:31:59.710Z,0.06
2022-12-08T05:34:34.454Z,0.06
2022-12-08T05:37:05.935Z,0.06
2022-12-08T05:39:36.666Z,0.06
2022-12-08T05:42:05.604Z,0.08
2022-12-08T05:44:34.296Z,0.07
2022-12-08T05:47:05.450Z,0.07
2022-12-08T05:49:34.236Z,0.09
2022-12-08T05:52:03.945Z,0.09
2022-12-08T05:54:35.718Z,0.09
2022-12-08T05:57:04.356Z,0.12
2022-12-08T05:59:34.144Z,0.12
2022-12-08T06:02:07.424Z,0.13
2022-12-08T06:04:37.827Z,0.16
2022-12-08T06:07:15.961Z,0.17
2022-12-08T06:09:44.934Z,0.19
2022-12-08T06:12:14.624Z,0.23
2022-12-08T06:14:44.025Z,0.25
2022-12-08T06:17:15.126Z,0.31
2022-12-08T06:19:43.898Z,0.27
2022-12-08T06:22:12.476Z,0.29
2022-12-08T06:24:41.127Z,0.27
2022-12-08T06:27:09.616Z,0.26
2022-12-08T06:29:38.215Z,0.27
2022-12-08T06:32:08.196Z,0.28
2022-12-08T06:34:38.883Z,0.26
2022-12-08T06:37:07.746Z,0.22
2022-12-08T06:39:36.338Z,0.20
2022-12-08T06:42:22.478Z,0.17
2022-12-08T06:44:53.097Z,0.15
2022-12-08T06:47:26.197Z,0.14
2022-12-08T06:49:56.717Z,0.15
2022-12-08T06:52:31.329Z,0.14
2022-12-08T06:54:59.840Z,0.15
2022-12-08T06:57:28.394Z,0.17
2022-12-08T06:59:57.843Z,0.19
2022-12-08T07:02:26.524Z,0.20
2022-12-08T07:04:57.836Z,0.21
2022-12-08T07:07:26.301Z,0.19
2022-12-08T07:09:54.734Z,0.18
2022-12-08T07:12:23.448Z,0.19
2022-12-08T07:14:52.529Z,0.21
2022-12-08T07:17:23.801Z,0.22
2022-12-08T07:20:10.720Z,0.23
2022-12-08T07:32:57.889Z,0.25
2022-12-08T08:16:09.923Z,0.05
2022-12-08T08:27:54.866Z,-0.06
2022-12-08T08:46:30.854Z,-0.09
2022-12-08T09:23:14.854Z,0.17
2022-12-08T16:25:23.217Z,1.68
2022-12-08T16:28:12.370Z,1.73
2022-12-08T16:30:41.726Z,1.71
2022-12-08T16:33:11.770Z,1.70
2022-12-08T16:35:40.965Z,1.63
2022-12-08T16:38:09.759Z,1.59
2022-12-08T16:41:00.320Z,1.56
2022-12-08T16:43:27.776Z,1.49
2022-12-08T16:45:56.853Z,1.50
2022-12-08T16:48:25.410Z,1.47
2022-12-08T16:50:57.590Z,1.40
2022-12-08T16:53:26.149Z,1.40
2022-12-08T16:55:56.215Z,1.36
2022-12-08T16:58:24.962Z,1.32
2022-12-08T17:00:54.669Z,1.27
2022-12-08T17:03:23.209Z,1.23
2022-12-08T17:05:52.811Z,1.18
2022-12-08T17:08:21.442Z,1.15
2022-12-08T17:11:07.686Z,1.11
2022-12-08T17:13:39.921Z,1.06
2022-12-08T17:16:12.296Z,1.05
2022-12-08T17:18:41.282Z,0.99
2022-12-08T17:21:13.483Z,0.96
2022-12-08T17:23:43.172Z,0.93
2022-12-08T17:26:12.431Z,0.89
2022-12-08T17:31:33.838Z,0.86
2022-12-08T17:34:03.195Z,0.82
2022-12-08T17:36:32.711Z,0.79
2022-12-08T17:39:02.471Z,0.74
2022-12-08T17:41:31.262Z,0.72
2022-12-08T17:44:01.567Z,0.72
2022-12-08T17:46:30.264Z,0.72
2022-12-08T17:48:58.726Z,0.73
2022-12-08T17:51:27.755Z,0.75
2022-12-08T17:53:56.312Z,0.72
2022-12-08T17:56:25.138Z,0.73
2022-12-08T17:58:55.007Z,0.71
2022-12-08T18:01:27.794Z,0.69
2022-12-08T18:03:56.352Z,0.69
2022-12-08T18:06:29.630Z,0.66
2022-12-08T18:09:02.347Z,0.65
2022-12-08T18:11:31.690Z,0.62
2022-12-08T18:14:00.698Z,0.60
2022-12-08T18:16:31.806Z,0.59
2022-12-08T18:19:00.479Z,0.57
2022-12-08T18:21:29.036Z,0.54
2022-12-08T18:23:57.881Z,0.53
2022-12-08T18:26:26.412Z,0.49
2022-12-08T18:28:54.941Z,0.45
2022-12-08T18:31:24.592Z,0.43
2022-12-08T18:33:55.525Z,0.42
2022-12-08T18:36:26.871Z,0.39
2022-12-08T18:38:55.956Z,0.37
2022-12-08T18:41:27.193Z,0.37
2022-12-08T18:43:57.913Z,0.35
2022-12-08T18:46:27.143Z,0.31
2022-12-08T18:48:57.225Z,0.29
2022-12-08T18:51:26.939Z,0.25
2022-12-08T18:53:55.540Z,0.26
2022-12-08T18:56:26.794Z,0.21
2022-12-08T18:59:01.274Z,0.20
2022-12-08T19:01:32.670Z,0.15
2022-12-08T19:06:52.581Z,0.15
2022-12-08T19:09:22.825Z,0.14
2022-12-08T19:11:51.391Z,0.11
2022-12-08T19:14:25.733Z,0.09
2022-12-08T19:16:56.570Z,0.08
2022-12-08T19:19:26.962Z,0.07
2022-12-08T19:21:55.689Z,0.06
2022-12-08T19:24:24.649Z,0.04
2022-12-08T19:26:53.835Z,-0.01
2022-12-08T19:29:22.962Z,-0.02
2022-12-08T19:31:51.825Z,-0.01
2022-12-08T19:34:20.583Z,-0.02
2022-12-08T19:36:50.580Z,-0.06
2022-12-08T19:39:38.432Z,-0.08
2022-12-08T19:42:33.255Z,-0.10
2022-12-08T19:45:05.623Z,-0.08
2022-12-08T19:47:34.681Z,-0.17
2022-12-08T19:50:20.537Z,-0.18
2022-12-08T19:52:50.542Z,-0.16
2022-12-08T19:55:19.665Z,-0.17
2022-12-08T19:57:48.631Z,-0.19
2022-12-08T20:00:17.786Z,-0.20
2022-12-08T20:02:47.312Z,-0.19
2022-12-08T20:05:16.787Z,-0.22
2022-12-08T20:07:45.992Z,-0.21
2022-12-08T20:10:18.186Z,-0.23
2022-12-08T20:12:48.797Z,-0.28
2022-12-08T20:15:17.570Z,-0.31
2022-12-08T20:17:46.048Z,-0.40
2022-12-08T20:20:16.184Z,-0.43
2022-12-08T20:22:45.464Z,-0.53
2022-12-08T20:25:15.637Z,-0.61
2022-12-08T20:27:44.727Z,-0.64
2022-12-08T20:30:16.985Z,-0.67
2022-12-08T20:32:46.283Z,-0.71
2022-12-08T20:35:19.477Z,-0.66
2022-12-08T20:37:48.226Z,-0.63
2022-12-08T20:40:18.671Z,-0.63
2022-12-08T20:42:50.593Z,-0.61
2022-12-08T20:45:19.387Z,-0.59
2022-12-08T20:47:53.763Z,-0.65
2022-12-08T20:50:25.304Z,-0.62
2022-12-08T20:52:54.008Z,-0.56
2022-12-08T20:55:23.962Z,-0.49
2022-12-08T20:57:52.607Z,-0.52
2022-12-08T21:00:23.528Z,-0.53
2022-12-08T21:02:56.567Z,-0.54
2022-12-08T21:05:28.268Z,-0.53
2022-12-08T21:07:57.071Z,-0.49
2022-12-08T21:10:27.394Z,-0.45
2022-12-08T21:12:56.125Z,-0.43
2022-12-08T21:15:24.929Z,-0.39
2022-12-08T21:17:55.346Z,-0.47
2022-12-08T21:20:24.266Z,-0.46
2022-12-08T21:22:53.101Z,-0.41
2022-12-08T21:25:27.626Z,-0.40
2022-12-08T21:28:05.906Z,-0.37
2022-12-08T21:30:34.561Z,-0.34
2022-12-08T21:33:09.247Z,-0.32
2022-12-08T21:35:40.666Z,-0.33
2022-12-08T21:38:09.675Z,-0.42
2022-12-08T21:40:39.964Z,-0.46
2022-12-08T21:43:11.618Z,-0.46
2022-12-08T21:45:40.573Z,-0.49
2022-12-08T21:48:29.135Z,-0.49
2022-12-08T21:51:04.852Z,-0.49
2022-12-08T21:53:33.672Z,-0.52
2022-12-08T21:56:02.283Z,-0.54
2022-12-08T21:58:33.070Z,-0.56
2022-12-08T22:01:12.599Z,-0.58
2022-12-08T22:03:42.421Z,-0.52
2022-12-08T22:06:13.852Z,-0.42
2022-12-08T22:08:43.850Z,-0.41
2022-12-08T22:11:13.911Z,-0.34
2022-12-08T22:13:45.104Z,-0.31
2022-12-08T22:16:15.602Z,-0.32
2022-12-08T22:18:49.415Z,-0.32
2022-12-08T22:26:08.261Z,-0.33
2022-12-08T22:49:13.650Z,-0.19
2022-12-08T22:56:59.297Z,-0.07
2022-12-08T23:59:19.916Z,0.01
